IZA926 ULLI-USII
Flight info
| Callsign | IZA926 |
|---|---|
| Flight time | 2h 0m |
| Altitude | 35000 |
| Route | N0460F350 KERIS L255 DOKOD M61 AGNOG P977 RULEN |
| Aircraft | B738/M-Q/L |
Departure
| Time | 2026-04-21 15:00 |
|---|---|
| Airport | Pulkovo Airport (ULLI) |
Arrival
| Time | 2026-04-21 17:01 |
|---|---|
| Airport | Izhevsk Airport (USII) |
| Time | Latitude | Longitude | Altitude | Speed | Heading |
|---|---|---|---|---|---|
| 2026-04-21 14:35 | 59.79987 | 30.26744 | 88 ft | 0 kts | 106° |
| 2026-04-21 14:48 | 59.79990 | 30.26726 | 88 ft | 2 kts | 105° |
| 2026-04-21 14:48 | 59.79994 | 30.26699 | 88 ft | 1 kts | 107° |
| 2026-04-21 14:49 | 59.79997 | 30.26680 | 88 ft | 2 kts | 90° |
| 2026-04-21 14:49 | 59.79993 | 30.26651 | 88 ft | 2 kts | 60° |
| 2026-04-21 14:49 | 59.79984 | 30.26629 | 88 ft | 2 kts | 32° |
| 2026-04-21 14:49 | 59.79976 | 30.26621 | 88 ft | 1 kts | 15° |
| 2026-04-21 14:50 | 59.79971 | 30.26619 | 88 ft | 1 kts | 15° |
| 2026-04-21 14:50 | 59.79970 | 30.26619 | 88 ft | 0 kts | 15° |
| 2026-04-21 14:53 | 59.79971 | 30.26619 | 88 ft | 0 kts | 15° |
| 2026-04-21 14:53 | 59.79973 | 30.26620 | 88 ft | 0 kts | 15° |
| 2026-04-21 14:53 | 59.79974 | 30.26621 | 88 ft | 0 kts | 15° |
| 2026-04-21 14:54 | 59.79980 | 30.26624 | 88 ft | 3 kts | 15° |
| 2026-04-21 14:54 | 59.80024 | 30.26650 | 87 ft | 9 kts | 17° |
| 2026-04-21 14:54 | 59.80112 | 30.26703 | 85 ft | 16 kts | 15° |
| 2026-04-21 14:55 | 59.80241 | 30.26776 | 83 ft | 20 kts | 16° |
| 2026-04-21 14:55 | 59.80342 | 30.26832 | 81 ft | 6 kts | 14° |
| 2026-04-21 14:55 | 59.80387 | 30.26892 | 80 ft | 8 kts | 86° |
| 2026-04-21 14:55 | 59.80373 | 30.27038 | 80 ft | 13 kts | 105° |
| 2026-04-21 14:56 | 59.80342 | 30.27260 | 78 ft | 19 kts | 105° |
| 2026-04-21 14:56 | 59.80303 | 30.27509 | 78 ft | 17 kts | 106° |
| 2026-04-21 14:56 | 59.80269 | 30.27735 | 78 ft | 17 kts | 106° |
| 2026-04-21 14:56 | 59.80235 | 30.27966 | 77 ft | 16 kts | 107° |
| 2026-04-21 14:57 | 59.80201 | 30.28193 | 75 ft | 17 kts | 106° |
| 2026-04-21 14:57 | 59.80169 | 30.28410 | 75 ft | 16 kts | 106° |
| 2026-04-21 14:57 | 59.80139 | 30.28612 | 75 ft | 14 kts | 107° |
| 2026-04-21 14:57 | 59.80110 | 30.28798 | 75 ft | 14 kts | 107° |
| 2026-04-21 14:58 | 59.80078 | 30.29012 | 73 ft | 17 kts | 106° |
| 2026-04-21 14:58 | 59.80041 | 30.29264 | 74 ft | 19 kts | 105° |
| 2026-04-21 14:58 | 59.80003 | 30.29519 | 75 ft | 19 kts | 107° |
| 2026-04-21 14:58 | 59.79962 | 30.29788 | 75 ft | 20 kts | 105° |
| 2026-04-21 14:59 | 59.79940 | 30.29988 | 76 ft | 10 kts | 78° |
| 2026-04-21 14:59 | 59.79983 | 30.30116 | 75 ft | 12 kts | 49° |
| 2026-04-21 14:59 | 59.80049 | 30.30251 | 75 ft | 14 kts | 30° |
| 2026-04-21 14:59 | 59.80125 | 30.30226 | 75 ft | 10 kts | 298° |
| 2026-04-21 15:00 | 59.80160 | 30.29986 | 74 ft | 45 kts | 288° |
| 2026-04-21 15:00 | 59.80328 | 30.28895 | 71 ft | 116 kts | 285° |
| 2026-04-21 15:00 | 59.80613 | 30.26975 | 133 ft | 165 kts | 288° |
| 2026-04-21 15:00 | 59.80930 | 30.24815 | 922 ft | 162 kts | 288° |
| 2026-04-21 15:01 | 59.81212 | 30.22731 | 1711 ft | 161 kts | 287° |
| 2026-04-21 15:01 | 59.81516 | 30.20503 | 2120 ft | 175 kts | 289° |
| 2026-04-21 15:01 | 59.81871 | 30.18178 | 2675 ft | 180 kts | 292° |
| 2026-04-21 15:01 | 59.82299 | 30.15843 | 3266 ft | 183 kts | 295° |
| 2026-04-21 15:02 | 59.82696 | 30.13261 | 3554 ft | 206 kts | 288° |
| 2026-04-21 15:02 | 59.83087 | 30.10402 | 3974 ft | 225 kts | 289° |
| 2026-04-21 15:02 | 59.83523 | 30.07346 | 4627 ft | 233 kts | 289° |
| 2026-04-21 15:02 | 59.84083 | 30.04362 | 5393 ft | 232 kts | 303° |
| 2026-04-21 15:03 | 59.85104 | 30.02001 | 6129 ft | 229 kts | 326° |
| 2026-04-21 15:03 | 59.86472 | 30.00494 | 6819 ft | 229 kts | 341° |
| 2026-04-21 15:03 | 59.88039 | 29.99911 | 7518 ft | 230 kts | 2° |
| 2026-04-21 15:03 | 59.89590 | 30.00480 | 8274 ft | 230 kts | 16° |
| 2026-04-21 15:04 | 59.91035 | 30.01807 | 8932 ft | 234 kts | 34° |
| 2026-04-21 15:04 | 59.92182 | 30.04065 | 9728 ft | 235 kts | 51° |
| 2026-04-21 15:04 | 59.92954 | 30.06958 | 10351 ft | 242 kts | 69° |
| 2026-04-21 15:04 | 59.93165 | 30.10274 | 10981 ft | 251 kts | 88° |
| 2026-04-21 15:05 | 59.92838 | 30.13741 | 11579 ft | 258 kts | 100° |
| 2026-04-21 15:05 | 59.91711 | 30.20551 | 12816 ft | 269 kts | 107° |
| 2026-04-21 15:05 | 59.90925 | 30.24031 | 13189 ft | 285 kts | 109° |
| 2026-04-21 15:06 | 59.90072 | 30.27713 | 13565 ft | 299 kts | 109° |
| 2026-04-21 15:06 | 59.89208 | 30.31585 | 13915 ft | 312 kts | 106° |
| 2026-04-21 15:06 | 59.88667 | 30.35748 | 14522 ft | 313 kts | 92° |
| 2026-04-21 15:06 | 59.88507 | 30.40058 | 15182 ft | 315 kts | 88° |
| 2026-04-21 15:07 | 59.88421 | 30.44392 | 15940 ft | 318 kts | 87° |
| 2026-04-21 15:07 | 59.88320 | 30.48756 | 16678 ft | 319 kts | 88° |
| 2026-04-21 15:07 | 59.88202 | 30.53171 | 17314 ft | 323 kts | 88° |
| 2026-04-21 15:07 | 59.88075 | 30.57594 | 18009 ft | 324 kts | 88° |
| 2026-04-21 15:08 | 59.87942 | 30.62064 | 18662 ft | 326 kts | 88° |
| 2026-04-21 15:08 | 59.87805 | 30.66572 | 19327 ft | 329 kts | 88° |
| 2026-04-21 15:08 | 59.87665 | 30.71112 | 19949 ft | 332 kts | 88° |
| 2026-04-21 15:08 | 59.87521 | 30.75687 | 20537 ft | 334 kts | 88° |
| 2026-04-21 15:09 | 59.87375 | 30.80277 | 21113 ft | 338 kts | 88° |
| 2026-04-21 15:09 | 59.87225 | 30.84946 | 21708 ft | 340 kts | 88° |
| 2026-04-21 15:09 | 59.87072 | 30.89658 | 22257 ft | 343 kts | 88° |
| 2026-04-21 15:09 | 59.86917 | 30.94373 | 22807 ft | 345 kts | 88° |
| 2026-04-21 15:10 | 59.86758 | 30.99145 | 23323 ft | 348 kts | 88° |
| 2026-04-21 15:10 | 59.86597 | 31.03949 | 23844 ft | 351 kts | 88° |
| 2026-04-21 15:10 | 59.86433 | 31.08765 | 24370 ft | 353 kts | 88° |
| 2026-04-21 15:10 | 59.86266 | 31.13638 | 24886 ft | 355 kts | 88° |
| 2026-04-21 15:11 | 59.86095 | 31.18524 | 25420 ft | 356 kts | 88° |
| 2026-04-21 15:11 | 59.85925 | 31.23395 | 25902 ft | 358 kts | 88° |
| 2026-04-21 15:11 | 59.85748 | 31.28359 | 26359 ft | 360 kts | 88° |
| 2026-04-21 15:11 | 59.85570 | 31.33301 | 26829 ft | 361 kts | 88° |
| 2026-04-21 15:12 | 59.85391 | 31.38285 | 27278 ft | 363 kts | 88° |
| 2026-04-21 15:12 | 59.85208 | 31.43262 | 27702 ft | 365 kts | 88° |
| 2026-04-21 15:12 | 59.85021 | 31.48286 | 28156 ft | 366 kts | 88° |
| 2026-04-21 15:12 | 59.84832 | 31.53321 | 28582 ft | 367 kts | 88° |
| 2026-04-21 15:13 | 59.84640 | 31.58429 | 28957 ft | 370 kts | 88° |
| 2026-04-21 15:13 | 59.84446 | 31.63511 | 29347 ft | 371 kts | 88° |
| 2026-04-21 15:13 | 59.84249 | 31.68617 | 29751 ft | 372 kts | 89° |
| 2026-04-21 15:13 | 59.84049 | 31.73727 | 30113 ft | 373 kts | 89° |
| 2026-04-21 15:14 | 59.83847 | 31.78859 | 30402 ft | 376 kts | 89° |
| 2026-04-21 15:14 | 59.83642 | 31.84035 | 30755 ft | 377 kts | 89° |
| 2026-04-21 15:14 | 59.83434 | 31.89205 | 30974 ft | 381 kts | 89° |
| 2026-04-21 15:14 | 59.83221 | 31.94487 | 31336 ft | 382 kts | 89° |
| 2026-04-21 15:15 | 59.83006 | 31.99743 | 31559 ft | 385 kts | 89° |
| 2026-04-21 15:15 | 59.82787 | 32.05045 | 31820 ft | 387 kts | 89° |
| 2026-04-21 15:15 | 59.82563 | 32.10398 | 32058 ft | 390 kts | 89° |
| 2026-04-21 15:15 | 59.82335 | 32.15805 | 32286 ft | 392 kts | 89° |
| 2026-04-21 15:16 | 59.82106 | 32.21180 | 32476 ft | 395 kts | 89° |
| 2026-04-21 15:16 | 59.81871 | 32.26643 | 32680 ft | 397 kts | 89° |
| 2026-04-21 15:16 | 59.81634 | 32.32089 | 32836 ft | 401 kts | 89° |
| 2026-04-21 15:16 | 59.81439 | 32.37624 | 33062 ft | 401 kts | 87° |
| 2026-04-21 15:17 | 59.81350 | 32.43176 | 33219 ft | 403 kts | 86° |
| 2026-04-21 15:17 | 59.81294 | 32.48707 | 33380 ft | 405 kts | 86° |
| 2026-04-21 15:17 | 59.81236 | 32.54272 | 33582 ft | 407 kts | 86° |
| 2026-04-21 15:17 | 59.81170 | 32.59903 | 33720 ft | 410 kts | 86° |
| 2026-04-21 15:18 | 59.81093 | 32.65599 | 33910 ft | 412 kts | 87° |
| 2026-04-21 15:18 | 59.81012 | 32.71296 | 34067 ft | 414 kts | 87° |
| 2026-04-21 15:18 | 59.80925 | 32.76984 | 34236 ft | 416 kts | 87° |
| 2026-04-21 15:18 | 59.80834 | 32.82774 | 34403 ft | 418 kts | 87° |
| 2026-04-21 15:19 | 59.80738 | 32.88577 | 34652 ft | 417 kts | 87° |
| 2026-04-21 15:19 | 59.80639 | 32.94333 | 34863 ft | 418 kts | 87° |
| 2026-04-21 15:19 | 59.80539 | 33.00042 | 34992 ft | 420 kts | 87° |
| 2026-04-21 15:19 | 59.80435 | 33.05853 | 35013 ft | 423 kts | 87° |
| 2026-04-21 15:20 | 59.80219 | 33.17396 | 35017 ft | 421 kts | 87° |
| 2026-04-21 15:20 | 59.79991 | 33.28920 | 35013 ft | 419 kts | 87° |
| 2026-04-21 15:21 | 59.79754 | 33.40527 | 35015 ft | 420 kts | 87° |
| 2026-04-21 15:21 | 59.79508 | 33.51994 | 35012 ft | 418 kts | 87° |
| 2026-04-21 15:22 | 59.79251 | 33.63561 | 35012 ft | 420 kts | 87° |
| 2026-04-21 15:22 | 59.78985 | 33.75100 | 35006 ft | 421 kts | 88° |
| 2026-04-21 15:23 | 59.78706 | 33.86698 | 35006 ft | 421 kts | 88° |
| 2026-04-21 15:23 | 59.78418 | 33.98270 | 35005 ft | 421 kts | 88° |
| 2026-04-21 15:24 | 59.78119 | 34.09849 | 34997 ft | 420 kts | 88° |
| 2026-04-21 15:24 | 59.77810 | 34.21397 | 34989 ft | 420 kts | 88° |
| 2026-04-21 15:25 | 59.77494 | 34.32982 | 34990 ft | 421 kts | 88° |
| 2026-04-21 15:25 | 59.77173 | 34.44513 | 34987 ft | 422 kts | 88° |
| 2026-04-21 15:26 | 59.76839 | 34.56018 | 34991 ft | 422 kts | 88° |
| 2026-04-21 15:26 | 59.76489 | 34.67649 | 34990 ft | 423 kts | 89° |
| 2026-04-21 15:27 | 59.76131 | 34.79177 | 34990 ft | 424 kts | 89° |
| 2026-04-21 15:27 | 59.75759 | 34.90809 | 34984 ft | 423 kts | 89° |
| 2026-04-21 15:28 | 59.75378 | 35.02380 | 34984 ft | 424 kts | 89° |
| 2026-04-21 15:28 | 59.74989 | 35.13967 | 34984 ft | 424 kts | 89° |
| 2026-04-21 15:29 | 59.74582 | 35.25677 | 34976 ft | 425 kts | 89° |
| 2026-04-21 15:29 | 59.74169 | 35.37280 | 34973 ft | 425 kts | 89° |
| 2026-04-21 15:30 | 59.73738 | 35.48967 | 34978 ft | 425 kts | 89° |
| 2026-04-21 15:30 | 59.73293 | 35.60512 | 34973 ft | 425 kts | 89° |
| 2026-04-21 15:31 | 59.72834 | 35.72180 | 34970 ft | 426 kts | 90° |
| 2026-04-21 15:31 | 59.72368 | 35.83844 | 34976 ft | 427 kts | 90° |
| 2026-04-21 15:32 | 59.71888 | 35.95559 | 34977 ft | 428 kts | 90° |
| 2026-04-21 15:32 | 59.71396 | 36.07267 | 34978 ft | 428 kts | 90° |
| 2026-04-21 15:33 | 59.70901 | 36.18808 | 34978 ft | 427 kts | 90° |
| 2026-04-21 15:33 | 59.70395 | 36.30404 | 34974 ft | 428 kts | 90° |
| 2026-04-21 15:34 | 59.69873 | 36.42119 | 34969 ft | 428 kts | 90° |
| 2026-04-21 15:34 | 59.69338 | 36.53869 | 34945 ft | 429 kts | 90° |
| 2026-04-21 15:35 | 59.68792 | 36.65622 | 34953 ft | 429 kts | 91° |
| 2026-04-21 15:35 | 59.68238 | 36.77321 | 34943 ft | 430 kts | 91° |
| 2026-04-21 15:36 | 59.67670 | 36.89034 | 34941 ft | 430 kts | 91° |
| 2026-04-21 15:36 | 59.67090 | 37.00806 | 34925 ft | 431 kts | 91° |
| 2026-04-21 15:37 | 59.66498 | 37.12596 | 34927 ft | 431 kts | 91° |
| 2026-04-21 15:37 | 59.65899 | 37.24352 | 34924 ft | 431 kts | 91° |
| 2026-04-21 15:38 | 59.65284 | 37.36140 | 34922 ft | 432 kts | 91° |
| 2026-04-21 15:38 | 59.64662 | 37.47891 | 34924 ft | 433 kts | 92° |
| 2026-04-21 15:39 | 59.64026 | 37.59714 | 34927 ft | 433 kts | 91° |
| 2026-04-21 15:39 | 59.63381 | 37.71480 | 34926 ft | 433 kts | 92° |
| 2026-04-21 15:40 | 59.62722 | 37.83292 | 34922 ft | 434 kts | 92° |
| 2026-04-21 15:40 | 59.62051 | 37.95184 | 34919 ft | 435 kts | 92° |
| 2026-04-21 15:41 | 59.61379 | 38.06935 | 34928 ft | 435 kts | 92° |
| 2026-04-21 15:41 | 59.60684 | 38.18864 | 34931 ft | 435 kts | 92° |
| 2026-04-21 15:42 | 59.59989 | 38.30571 | 34933 ft | 436 kts | 93° |
| 2026-04-21 15:42 | 59.59274 | 38.42469 | 34929 ft | 436 kts | 93° |
| 2026-04-21 15:43 | 59.58553 | 38.54292 | 34922 ft | 437 kts | 93° |
| 2026-04-21 15:43 | 59.57815 | 38.66208 | 34915 ft | 437 kts | 94° |
| 2026-04-21 15:44 | 59.57067 | 38.78086 | 34914 ft | 438 kts | 94° |
| 2026-04-21 15:44 | 59.56304 | 38.89998 | 34918 ft | 438 kts | 94° |
| 2026-04-21 15:45 | 59.55535 | 39.01839 | 34920 ft | 439 kts | 94° |
| 2026-04-21 15:45 | 59.54749 | 39.13827 | 34919 ft | 440 kts | 94° |
| 2026-04-21 15:46 | 59.53961 | 39.25662 | 34917 ft | 440 kts | 94° |
| 2026-04-21 15:46 | 59.53153 | 39.37591 | 34914 ft | 440 kts | 94° |
| 2026-04-21 15:47 | 59.52334 | 39.49527 | 34910 ft | 440 kts | 94° |
| 2026-04-21 15:47 | 59.51506 | 39.61417 | 34903 ft | 440 kts | 94° |
| 2026-04-21 15:48 | 59.50663 | 39.73354 | 34901 ft | 440 kts | 95° |
| 2026-04-21 15:48 | 59.49824 | 39.85185 | 34899 ft | 441 kts | 94° |
| 2026-04-21 15:49 | 59.49283 | 39.97113 | 34895 ft | 439 kts | 91° |
| 2026-04-21 15:49 | 59.48873 | 40.09084 | 34894 ft | 441 kts | 91° |
| 2026-04-21 15:50 | 59.48437 | 40.21136 | 34888 ft | 440 kts | 91° |
| 2026-04-21 15:50 | 59.47974 | 40.33055 | 34888 ft | 439 kts | 91° |
| 2026-04-21 15:51 | 59.47491 | 40.45048 | 34888 ft | 440 kts | 91° |
| 2026-04-21 15:51 | 59.46993 | 40.57026 | 34885 ft | 440 kts | 91° |
| 2026-04-21 15:52 | 59.46481 | 40.69011 | 34881 ft | 441 kts | 92° |
| 2026-04-21 15:52 | 59.45961 | 40.80908 | 34883 ft | 441 kts | 92° |
| 2026-04-21 15:53 | 59.45422 | 40.92929 | 34880 ft | 441 kts | 92° |
| 2026-04-21 15:53 | 59.44873 | 41.04884 | 34880 ft | 441 kts | 92° |
| 2026-04-21 15:54 | 59.44315 | 41.16808 | 34880 ft | 441 kts | 92° |
| 2026-04-21 15:54 | 59.43743 | 41.28808 | 34877 ft | 441 kts | 92° |
| 2026-04-21 15:55 | 59.43162 | 41.40764 | 34873 ft | 441 kts | 92° |
| 2026-04-21 15:55 | 59.42574 | 41.52695 | 34868 ft | 442 kts | 92° |
| 2026-04-21 15:56 | 59.41967 | 41.64738 | 34866 ft | 442 kts | 92° |
| 2026-04-21 15:56 | 59.41356 | 41.76646 | 34864 ft | 442 kts | 94° |
| 2026-04-21 15:57 | 59.40729 | 41.88599 | 34855 ft | 442 kts | 93° |
| 2026-04-21 15:57 | 59.40094 | 42.00512 | 34853 ft | 441 kts | 93° |
| 2026-04-21 15:58 | 59.39444 | 42.12536 | 34850 ft | 442 kts | 94° |
| 2026-04-21 15:58 | 59.38791 | 42.24438 | 34849 ft | 442 kts | 94° |
| 2026-04-21 15:59 | 59.38113 | 42.36436 | 34848 ft | 442 kts | 94° |
| 2026-04-21 15:59 | 59.37397 | 42.48360 | 34843 ft | 442 kts | 94° |
| 2026-04-21 16:00 | 59.36669 | 42.60252 | 34838 ft | 442 kts | 94° |
| 2026-04-21 16:00 | 59.35930 | 42.72181 | 34837 ft | 442 kts | 95° |
| 2026-04-21 16:01 | 59.35178 | 42.84137 | 34836 ft | 442 kts | 95° |
| 2026-04-21 16:01 | 59.34421 | 42.96006 | 34832 ft | 442 kts | 95° |
| 2026-04-21 16:02 | 59.33653 | 43.07906 | 34830 ft | 442 kts | 95° |
| 2026-04-21 16:02 | 59.32874 | 43.19787 | 34828 ft | 443 kts | 95° |
| 2026-04-21 16:03 | 59.32076 | 43.31751 | 34826 ft | 443 kts | 95° |
| 2026-04-21 16:03 | 59.31274 | 43.43633 | 34826 ft | 442 kts | 95° |
| 2026-04-21 16:04 | 59.30458 | 43.55576 | 34819 ft | 442 kts | 95° |
| 2026-04-21 16:04 | 59.29630 | 43.67508 | 34815 ft | 442 kts | 95° |
| 2026-04-21 16:05 | 59.28796 | 43.79385 | 34813 ft | 443 kts | 96° |
| 2026-04-21 16:05 | 59.27951 | 43.91219 | 34812 ft | 444 kts | 96° |
| 2026-04-21 16:06 | 59.27082 | 44.03236 | 34810 ft | 444 kts | 96° |
| 2026-04-21 16:06 | 59.26215 | 44.15060 | 34805 ft | 443 kts | 96° |
| 2026-04-21 16:07 | 59.25400 | 44.26999 | 34801 ft | 442 kts | 95° |
| 2026-04-21 16:07 | 59.24622 | 44.38885 | 34792 ft | 442 kts | 95° |
| 2026-04-21 16:08 | 59.23429 | 44.56679 | 34790 ft | 443 kts | 95° |
| 2026-04-21 16:09 | 59.22615 | 44.68528 | 34784 ft | 443 kts | 96° |
| 2026-04-21 16:09 | 59.21787 | 44.80427 | 34787 ft | 444 kts | 96° |
| 2026-04-21 16:10 | 59.20944 | 44.92362 | 34785 ft | 445 kts | 96° |
| 2026-04-21 16:10 | 59.20089 | 45.04287 | 34782 ft | 445 kts | 96° |
| 2026-04-21 16:11 | 59.19222 | 45.16212 | 34779 ft | 444 kts | 96° |
| 2026-04-21 16:11 | 59.18345 | 45.28106 | 34774 ft | 444 kts | 96° |
| 2026-04-21 16:12 | 59.17370 | 45.37973 | 34772 ft | 445 kts | 100° |
| 2026-04-21 16:12 | 59.15807 | 45.51658 | 34763 ft | 446 kts | 100° |
| 2026-04-21 16:13 | 59.14464 | 45.63423 | 34758 ft | 446 kts | 100° |
| 2026-04-21 16:13 | 59.13130 | 45.75166 | 34760 ft | 446 kts | 101° |
| 2026-04-21 16:14 | 59.11790 | 45.86943 | 34756 ft | 446 kts | 101° |
| 2026-04-21 16:14 | 59.10440 | 45.98731 | 34744 ft | 446 kts | 101° |
| 2026-04-21 16:15 | 59.09090 | 46.10446 | 34745 ft | 446 kts | 101° |
| 2026-04-21 16:15 | 59.07721 | 46.22213 | 34753 ft | 447 kts | 101° |
| 2026-04-21 16:16 | 59.06343 | 46.33970 | 34753 ft | 446 kts | 101° |
| 2026-04-21 16:16 | 59.04965 | 46.45645 | 34746 ft | 446 kts | 101° |
| 2026-04-21 16:17 | 59.03567 | 46.57381 | 34747 ft | 446 kts | 101° |
| 2026-04-21 16:17 | 59.02153 | 46.69134 | 34751 ft | 446 kts | 102° |
| 2026-04-21 16:18 | 59.00747 | 46.80753 | 34750 ft | 446 kts | 102° |
| 2026-04-21 16:18 | 58.99320 | 46.92433 | 34744 ft | 446 kts | 102° |
| 2026-04-21 16:19 | 58.97888 | 47.04067 | 34751 ft | 445 kts | 102° |
| 2026-04-21 16:19 | 58.96439 | 47.15748 | 34743 ft | 446 kts | 102° |
| 2026-04-21 16:20 | 58.94978 | 47.27404 | 34741 ft | 446 kts | 102° |
| 2026-04-21 16:20 | 58.93463 | 47.39015 | 34726 ft | 447 kts | 105° |
| 2026-04-21 16:21 | 58.90865 | 47.50023 | 34722 ft | 450 kts | 122° |
| 2026-04-21 16:21 | 58.87001 | 47.59506 | 34712 ft | 452 kts | 128° |
| 2026-04-21 16:22 | 58.82880 | 47.68749 | 34709 ft | 452 kts | 129° |
| 2026-04-21 16:22 | 58.78798 | 47.77868 | 34699 ft | 453 kts | 129° |
| 2026-04-21 16:23 | 58.74673 | 47.87081 | 34708 ft | 453 kts | 129° |
| 2026-04-21 16:23 | 58.70578 | 47.96209 | 34699 ft | 453 kts | 129° |
| 2026-04-21 16:24 | 58.66445 | 48.05394 | 34708 ft | 453 kts | 129° |
| 2026-04-21 16:24 | 58.62340 | 48.14489 | 34707 ft | 453 kts | 129° |
| 2026-04-21 16:25 | 58.58228 | 48.23566 | 34700 ft | 453 kts | 129° |
| 2026-04-21 16:25 | 58.54308 | 48.32956 | 34690 ft | 452 kts | 125° |
| 2026-04-21 16:26 | 58.50560 | 48.42564 | 34692 ft | 452 kts | 125° |
| 2026-04-21 16:26 | 58.46801 | 48.52136 | 34694 ft | 452 kts | 125° |
| 2026-04-21 16:27 | 58.42996 | 48.61728 | 34692 ft | 452 kts | 126° |
| 2026-04-21 16:27 | 58.39191 | 48.71240 | 34682 ft | 453 kts | 127° |
| 2026-04-21 16:28 | 58.35366 | 48.80751 | 34676 ft | 453 kts | 127° |
| 2026-04-21 16:28 | 58.31550 | 48.90192 | 34665 ft | 452 kts | 127° |
| 2026-04-21 16:29 | 58.28341 | 48.98105 | 34666 ft | 452 kts | 127° |
| 2026-04-21 16:29 | 58.23887 | 49.09041 | 34653 ft | 452 kts | 127° |
| 2026-04-21 16:30 | 58.20018 | 49.18488 | 34652 ft | 453 kts | 127° |
| 2026-04-21 16:30 | 58.16151 | 49.27882 | 34657 ft | 453 kts | 127° |
| 2026-04-21 16:31 | 58.12265 | 49.37290 | 34640 ft | 453 kts | 127° |
| 2026-04-21 16:31 | 58.08401 | 49.46616 | 34627 ft | 454 kts | 127° |
| 2026-04-21 16:32 | 58.04508 | 49.55976 | 34617 ft | 454 kts | 127° |
| 2026-04-21 16:32 | 58.00609 | 49.65316 | 34618 ft | 455 kts | 128° |
| 2026-04-21 16:33 | 57.96692 | 49.74657 | 34610 ft | 455 kts | 128° |
| 2026-04-21 16:33 | 57.92770 | 49.83967 | 34624 ft | 455 kts | 128° |
| 2026-04-21 16:34 | 57.88856 | 49.93235 | 34627 ft | 455 kts | 127° |
| 2026-04-21 16:34 | 57.85274 | 50.03025 | 34617 ft | 454 kts | 117° |
| 2026-04-21 16:35 | 57.82768 | 50.13835 | 34606 ft | 455 kts | 110° |
| 2026-04-21 16:35 | 57.80606 | 50.24923 | 34608 ft | 455 kts | 109° |
| 2026-04-21 16:36 | 57.78448 | 50.36087 | 34609 ft | 454 kts | 109° |
| 2026-04-21 16:36 | 57.76278 | 50.47134 | 34606 ft | 454 kts | 109° |
| 2026-04-21 16:37 | 57.74066 | 50.58269 | 34607 ft | 454 kts | 109° |
| 2026-04-21 16:37 | 57.71872 | 50.69239 | 34610 ft | 453 kts | 110° |
| 2026-04-21 16:38 | 57.69657 | 50.80210 | 34238 ft | 448 kts | 110° |
| 2026-04-21 16:38 | 57.68559 | 50.85626 | 33594 ft | 449 kts | 110° |
| 2026-04-21 16:38 | 57.67451 | 50.91073 | 32920 ft | 452 kts | 110° |
| 2026-04-21 16:38 | 57.66334 | 50.96560 | 32399 ft | 452 kts | 110° |
| 2026-04-21 16:39 | 57.65217 | 51.02025 | 31856 ft | 453 kts | 109° |
| 2026-04-21 16:39 | 57.64102 | 51.07464 | 31300 ft | 454 kts | 109° |
| 2026-04-21 16:39 | 57.62977 | 51.12942 | 30686 ft | 455 kts | 109° |
| 2026-04-21 16:39 | 57.61838 | 51.18469 | 30089 ft | 456 kts | 109° |
| 2026-04-21 16:40 | 57.60717 | 51.23888 | 29437 ft | 456 kts | 109° |
| 2026-04-21 16:40 | 57.59572 | 51.29413 | 28830 ft | 455 kts | 108° |
| 2026-04-21 16:40 | 57.58442 | 51.34842 | 28229 ft | 454 kts | 108° |
| 2026-04-21 16:40 | 57.57301 | 51.40318 | 27596 ft | 452 kts | 108° |
| 2026-04-21 16:41 | 57.56546 | 51.43930 | 27175 ft | 451 kts | 108° |
| 2026-04-21 16:41 | 57.55050 | 51.51064 | 26373 ft | 448 kts | 108° |
| 2026-04-21 16:41 | 57.53920 | 51.56441 | 25758 ft | 445 kts | 107° |
| 2026-04-21 16:41 | 57.52804 | 51.61744 | 25151 ft | 443 kts | 107° |
| 2026-04-21 16:42 | 57.51689 | 51.67018 | 24492 ft | 439 kts | 108° |
| 2026-04-21 16:42 | 57.50578 | 51.72253 | 23837 ft | 435 kts | 108° |
| 2026-04-21 16:42 | 57.49481 | 51.77408 | 23238 ft | 429 kts | 108° |
| 2026-04-21 16:42 | 57.48386 | 51.82544 | 22644 ft | 423 kts | 108° |
| 2026-04-21 16:43 | 57.47317 | 51.87553 | 22069 ft | 417 kts | 108° |
| 2026-04-21 16:43 | 57.46257 | 51.92513 | 21498 ft | 411 kts | 109° |
| 2026-04-21 16:43 | 57.45215 | 51.97379 | 20939 ft | 406 kts | 109° |
| 2026-04-21 16:43 | 57.44187 | 52.02162 | 20380 ft | 401 kts | 109° |
| 2026-04-21 16:44 | 57.43165 | 52.06911 | 19830 ft | 396 kts | 109° |
| 2026-04-21 16:44 | 57.42158 | 52.11598 | 19278 ft | 391 kts | 109° |
| 2026-04-21 16:44 | 57.41159 | 52.16231 | 18731 ft | 385 kts | 110° |
| 2026-04-21 16:44 | 57.40154 | 52.20791 | 18184 ft | 381 kts | 111° |
| 2026-04-21 16:45 | 57.39121 | 52.25228 | 17634 ft | 377 kts | 112° |
| 2026-04-21 16:45 | 57.38068 | 52.29661 | 17089 ft | 373 kts | 113° |
| 2026-04-21 16:45 | 57.37036 | 52.34015 | 16543 ft | 369 kts | 113° |
| 2026-04-21 16:45 | 57.36024 | 52.38294 | 16001 ft | 365 kts | 114° |
| 2026-04-21 16:46 | 57.35013 | 52.42562 | 15440 ft | 362 kts | 114° |
| 2026-04-21 16:46 | 57.34024 | 52.46759 | 14892 ft | 358 kts | 114° |
| 2026-04-21 16:46 | 57.33028 | 52.50947 | 14345 ft | 355 kts | 115° |
| 2026-04-21 16:46 | 57.32082 | 52.55119 | 13786 ft | 352 kts | 114° |
| 2026-04-21 16:47 | 57.31114 | 52.59242 | 13236 ft | 350 kts | 115° |
| 2026-04-21 16:47 | 57.30139 | 52.63319 | 12687 ft | 347 kts | 115° |
| 2026-04-21 16:47 | 57.29156 | 52.67356 | 12135 ft | 344 kts | 116° |
| 2026-04-21 16:47 | 57.28178 | 52.71376 | 11579 ft | 342 kts | 116° |
| 2026-04-21 16:48 | 57.27209 | 52.75385 | 11020 ft | 340 kts | 116° |
| 2026-04-21 16:48 | 57.26254 | 52.79338 | 10472 ft | 338 kts | 116° |
| 2026-04-21 16:48 | 57.25304 | 52.83276 | 9921 ft | 337 kts | 116° |
| 2026-04-21 16:48 | 57.24374 | 52.87132 | 9610 ft | 327 kts | 116° |
| 2026-04-21 16:49 | 57.23468 | 52.90893 | 9586 ft | 310 kts | 116° |
| 2026-04-21 16:49 | 57.22618 | 52.94420 | 9595 ft | 294 kts | 117° |
| 2026-04-21 16:49 | 57.21802 | 52.97789 | 9598 ft | 283 kts | 117° |
| 2026-04-21 16:49 | 57.21008 | 53.01056 | 9599 ft | 282 kts | 117° |
| 2026-04-21 16:50 | 57.20197 | 53.04383 | 9518 ft | 286 kts | 117° |
| 2026-04-21 16:50 | 57.19384 | 53.07720 | 9074 ft | 291 kts | 117° |
| 2026-04-21 16:50 | 57.18546 | 53.11157 | 8512 ft | 295 kts | 117° |
| 2026-04-21 16:50 | 57.17707 | 53.14597 | 8071 ft | 295 kts | 117° |
| 2026-04-21 16:51 | 57.16872 | 53.18023 | 7619 ft | 294 kts | 117° |
| 2026-04-21 16:51 | 57.16060 | 53.21476 | 7167 ft | 294 kts | 115° |
| 2026-04-21 16:51 | 57.15330 | 53.24941 | 6744 ft | 287 kts | 114° |
| 2026-04-21 16:51 | 57.14648 | 53.28270 | 6356 ft | 278 kts | 114° |
| 2026-04-21 16:52 | 57.13978 | 53.31549 | 6009 ft | 269 kts | 114° |
| 2026-04-21 16:52 | 57.13329 | 53.34722 | 5666 ft | 261 kts | 114° |
| 2026-04-21 16:52 | 57.12703 | 53.37777 | 5357 ft | 252 kts | 114° |
| 2026-04-21 16:52 | 57.12098 | 53.40739 | 5068 ft | 245 kts | 114° |
| 2026-04-21 16:53 | 57.11513 | 53.43608 | 4778 ft | 238 kts | 114° |
| 2026-04-21 16:53 | 57.10943 | 53.46406 | 4488 ft | 232 kts | 114° |
| 2026-04-21 16:53 | 57.10384 | 53.49141 | 4224 ft | 224 kts | 114° |
| 2026-04-21 16:53 | 57.09844 | 53.51789 | 3925 ft | 218 kts | 114° |
| 2026-04-21 16:54 | 57.09323 | 53.54341 | 3663 ft | 211 kts | 114° |
| 2026-04-21 16:54 | 57.08828 | 53.56782 | 3496 ft | 199 kts | 114° |
| 2026-04-21 16:54 | 57.08207 | 53.58934 | 3283 ft | 185 kts | 140° |
| 2026-04-21 16:54 | 57.07169 | 53.60154 | 3108 ft | 168 kts | 163° |
| 2026-04-21 16:55 | 57.06125 | 53.60841 | 2936 ft | 156 kts | 165° |
| 2026-04-21 16:55 | 57.05119 | 53.61495 | 2942 ft | 156 kts | 165° |
| 2026-04-21 16:55 | 57.04084 | 53.62076 | 2928 ft | 151 kts | 174° |
| 2026-04-21 16:55 | 57.03076 | 53.61931 | 2948 ft | 146 kts | 202° |
| 2026-04-21 16:56 | 57.02108 | 53.61357 | 3005 ft | 152 kts | 199° |
| 2026-04-21 16:56 | 57.01110 | 53.60782 | 2907 ft | 144 kts | 201° |
| 2026-04-21 16:56 | 57.00195 | 53.60227 | 2923 ft | 138 kts | 199° |
| 2026-04-21 16:56 | 56.99266 | 53.59619 | 2936 ft | 140 kts | 204° |
| 2026-04-21 16:57 | 56.98399 | 53.58932 | 2920 ft | 139 kts | 206° |
| 2026-04-21 16:57 | 56.97511 | 53.58191 | 2958 ft | 146 kts | 206° |
| 2026-04-21 16:57 | 56.96590 | 53.57425 | 3044 ft | 137 kts | 206° |
| 2026-04-21 16:57 | 56.95688 | 53.56622 | 2917 ft | 146 kts | 207° |
| 2026-04-21 16:58 | 56.94789 | 53.55836 | 2920 ft | 143 kts | 206° |
| 2026-04-21 16:58 | 56.93882 | 53.55049 | 2761 ft | 147 kts | 208° |
| 2026-04-21 16:58 | 56.92950 | 53.54251 | 2390 ft | 153 kts | 205° |
| 2026-04-21 16:58 | 56.91978 | 53.53488 | 2113 ft | 150 kts | 206° |
| 2026-04-21 16:59 | 56.91056 | 53.52713 | 1982 ft | 146 kts | 207° |
| 2026-04-21 16:59 | 56.90120 | 53.51911 | 1710 ft | 150 kts | 205° |
| 2026-04-21 16:59 | 56.89155 | 53.51109 | 1405 ft | 158 kts | 207° |
| 2026-04-21 16:59 | 56.88175 | 53.50193 | 996 ft | 162 kts | 207° |
| 2026-04-21 17:00 | 56.87151 | 53.49387 | 923 ft | 151 kts | 203° |
| 2026-04-21 17:00 | 56.86220 | 53.48589 | 725 ft | 147 kts | 206° |
| 2026-04-21 17:00 | 56.85603 | 53.48059 | 617 ft | 148 kts | 205° |
| 2026-04-21 17:00 | 56.84385 | 53.46994 | 521 ft | 144 kts | 205° |
| 2026-04-21 17:01 | 56.83586 | 53.46314 | 530 ft | 90 kts | 205° |
| 2026-04-21 17:01 | 56.83233 | 53.46011 | 534 ft | 46 kts | 204° |
| 2026-04-21 17:01 | 56.83002 | 53.45820 | 534 ft | 19 kts | 203° |
| 2026-04-21 17:01 | 56.82915 | 53.45692 | 531 ft | 14 kts | 268° |
| 2026-04-21 17:02 | 56.82930 | 53.45603 | 529 ft | 1 kts | 292° |
| 2026-04-21 17:02 | 56.82939 | 53.45564 | 528 ft | 4 kts | 292° |
| 2026-04-21 17:02 | 56.82961 | 53.45483 | 527 ft | 9 kts | 307° |
| 2026-04-21 17:02 | 56.83016 | 53.45420 | 525 ft | 11 kts | 320° |
| 2026-04-21 17:03 | 56.83072 | 53.45421 | 524 ft | 0 kts | 25° |